sensor_id;sensor_type;location;lat;lon;timestamp;temperature;humidity
51853;DHT22;37894;53.172;6.598;2022-07-06T00:01:16;14.70;99.90
51853;DHT22;37894;53.172;6.598;2022-07-06T00:03:42;14.50;99.90
51853;DHT22;37894;53.172;6.598;2022-07-06T00:06:08;15.40;99.90
51853;DHT22;37894;53.172;6.598;2022-07-06T00:08:34;14.20;99.90
51853;DHT22;37894;53.172;6.598;2022-07-06T00:13:26;14.50;99.90
51853;DHT22;37894;53.172;6.598;2022-07-06T00:18:18;14.40;99.90
51853;DHT22;37894;53.172;6.598;2022-07-06T00:20:44;14.40;99.90
51853;DHT22;37894;53.172;6.598;2022-07-06T00:23:10;14.20;99.90
51853;DHT22;37894;53.172;6.598;2022-07-06T00:28:02;14.10;99.90
51853;DHT22;37894;53.172;6.598;2022-07-06T00:30:28;14.30;99.90
51853;DHT22;37894;53.172;6.598;2022-07-06T00:32:53;14.60;99.90
51853;DHT22;37894;53.172;6.598;2022-07-06T00:35:19;15.00;99.90
51853;DHT22;37894;53.172;6.598;2022-07-06T00:37:45;13.50;99.90
51853;DHT22;37894;53.172;6.598;2022-07-06T00:40:11;14.80;99.90
51853;DHT22;37894;53.172;6.598;2022-07-06T00:42:44;14.00;99.90
51853;DHT22;37894;53.172;6.598;2022-07-06T00:45:13;14.30;99.90
51853;DHT22;37894;53.172;6.598;2022-07-06T00:47:40;14.10;99.90
51853;DHT22;37894;53.172;6.598;2022-07-06T00:50:07;14.20;99.90
51853;DHT22;37894;53.172;6.598;2022-07-06T00:52:41;13.80;99.90
51853;DHT22;37894;53.172;6.598;2022-07-06T00:55:08;13.90;99.90
51853;DHT22;37894;53.172;6.598;2022-07-06T01:00:05;13.90;99.90
51853;DHT22;37894;53.172;6.598;2022-07-06T01:02:32;13.80;99.90
51853;DHT22;37894;53.172;6.598;2022-07-06T01:04:58;13.90;99.90
51853;DHT22;37894;53.172;6.598;2022-07-06T01:07:24;14.00;99.90
51853;DHT22;37894;53.172;6.598;2022-07-06T01:09:50;14.00;99.90
51853;DHT22;37894;53.172;6.598;2022-07-06T01:12:16;14.10;99.90
51853;DHT22;37894;53.172;6.598;2022-07-06T01:14:42;14.00;99.90
51853;DHT22;37894;53.172;6.598;2022-07-06T01:17:08;14.20;99.90
51853;DHT22;37894;53.172;6.598;2022-07-06T01:22:00;13.90;99.90
51853;DHT22;37894;53.172;6.598;2022-07-06T01:24:26;13.60;99.90
51853;DHT22;37894;53.172;6.598;2022-07-06T01:26:52;14.00;99.90
51853;DHT22;37894;53.172;6.598;2022-07-06T01:29:18;13.90;99.90
51853;DHT22;37894;53.172;6.598;2022-07-06T01:31:47;13.80;99.90
51853;DHT22;37894;53.172;6.598;2022-07-06T01:34:15;13.50;99.90
51853;DHT22;37894;53.172;6.598;2022-07-06T01:36:41;14.00;99.90
51853;DHT22;37894;53.172;6.598;2022-07-06T01:39:08;13.60;99.90
51853;DHT22;37894;53.172;6.598;2022-07-06T01:41:34;13.40;99.90
51853;DHT22;37894;53.172;6.598;2022-07-06T01:44:01;13.70;99.90
51853;DHT22;37894;53.172;6.598;2022-07-06T01:46:26;14.70;99.90
51853;DHT22;37894;53.172;6.598;2022-07-06T01:48:52;14.30;99.90
51853;DHT22;37894;53.172;6.598;2022-07-06T01:51:18;14.50;99.90
51853;DHT22;37894;53.172;6.598;2022-07-06T01:53:43;14.20;99.90
51853;DHT22;37894;53.172;6.598;2022-07-06T01:56:09;14.00;99.90
51853;DHT22;37894;53.172;6.598;2022-07-06T01:58:35;14.00;99.90
51853;DHT22;37894;53.172;6.598;2022-07-06T02:01:10;14.10;99.90
51853;DHT22;37894;53.172;6.598;2022-07-06T02:03:36;14.00;99.90
51853;DHT22;37894;53.172;6.598;2022-07-06T02:06:03;13.70;99.90
51853;DHT22;37894;53.172;6.598;2022-07-06T02:08:28;14.00;99.90
51853;DHT22;37894;53.172;6.598;2022-07-06T02:10:54;14.00;99.90
51853;DHT22;37894;53.172;6.598;2022-07-06T02:15:46;13.70;99.90
51853;DHT22;37894;53.172;6.598;2022-07-06T02:18:11;14.00;99.90
51853;DHT22;37894;53.172;6.598;2022-07-06T02:20:37;13.80;99.90
51853;DHT22;37894;53.172;6.598;2022-07-06T02:23:03;13.70;99.90
51853;DHT22;37894;53.172;6.598;2022-07-06T02:25:29;14.10;99.90
51853;DHT22;37894;53.172;6.598;2022-07-06T02:27:54;14.60;99.90
51853;DHT22;37894;53.172;6.598;2022-07-06T02:30:20;13.90;99.90
51853;DHT22;37894;53.172;6.598;2022-07-06T02:32:46;14.10;99.90
51853;DHT22;37894;53.172;6.598;2022-07-06T02:35:12;13.20;99.90
51853;DHT22;37894;53.172;6.598;2022-07-06T02:37:37;13.80;99.90
51853;DHT22;37894;53.172;6.598;2022-07-06T02:40:04;13.20;99.90
51853;DHT22;37894;53.172;6.598;2022-07-06T02:42:30;13.80;99.90
51853;DHT22;37894;53.172;6.598;2022-07-06T02:44:55;14.40;99.90
51853;DHT22;37894;53.172;6.598;2022-07-06T02:47:21;13.80;99.90
51853;DHT22;37894;53.172;6.598;2022-07-06T02:49:47;13.70;99.90
51853;DHT22;37894;53.172;6.598;2022-07-06T02:52:13;13.70;99.90
51853;DHT22;37894;53.172;6.598;2022-07-06T02:54:38;13.40;99.90
51853;DHT22;37894;53.172;6.598;2022-07-06T02:57:04;12.70;99.90
51853;DHT22;37894;53.172;6.598;2022-07-06T03:01:56;13.30;99.90
51853;DHT22;37894;53.172;6.598;2022-07-06T03:04:21;13.20;99.90
51853;DHT22;37894;53.172;6.598;2022-07-06T03:09:13;12.80;99.90
51853;DHT22;37894;53.172;6.598;2022-07-06T03:11:39;13.00;99.90
51853;DHT22;37894;53.172;6.598;2022-07-06T03:14:05;12.90;99.90
51853;DHT22;37894;53.172;6.598;2022-07-06T03:16:31;13.20;99.90
51853;DHT22;37894;53.172;6.598;2022-07-06T03:18:57;13.20;99.90
51853;DHT22;37894;53.172;6.598;2022-07-06T03:21:26;13.90;99.90
51853;DHT22;37894;53.172;6.598;2022-07-06T03:23:51;13.00;99.90
51853;DHT22;37894;53.172;6.598;2022-07-06T03:26:17;12.90;99.90
51853;DHT22;37894;53.172;6.598;2022-07-06T03:28:43;12.70;99.90
51853;DHT22;37894;53.172;6.598;2022-07-06T03:31:08;12.60;99.90
51853;DHT22;37894;53.172;6.598;2022-07-06T03:33:34;12.20;99.90
51853;DHT22;37894;53.172;6.598;2022-07-06T03:38:26;13.00;99.90
51853;DHT22;37894;53.172;6.598;2022-07-06T03:40:51;12.50;99.90
51853;DHT22;37894;53.172;6.598;2022-07-06T03:43:17;12.50;99.90
51853;DHT22;37894;53.172;6.598;2022-07-06T03:48:09;13.40;99.90
51853;DHT22;37894;53.172;6.598;2022-07-06T03:50:34;13.30;99.90
51853;DHT22;37894;53.172;6.598;2022-07-06T03:53:00;12.90;99.90
51853;DHT22;37894;53.172;6.598;2022-07-06T04:00:18;12.70;99.90
51853;DHT22;37894;53.172;6.598;2022-07-06T04:02:44;12.60;99.90
51853;DHT22;37894;53.172;6.598;2022-07-06T04:05:10;12.60;99.90
51853;DHT22;37894;53.172;6.598;2022-07-06T04:07:35;12.00;99.90
51853;DHT22;37894;53.172;6.598;2022-07-06T04:10:01;12.20;99.90
51853;DHT22;37894;53.172;6.598;2022-07-06T04:12:27;12.10;99.90
51853;DHT22;37894;53.172;6.598;2022-07-06T04:14:55;11.50;99.90
51853;DHT22;37894;53.172;6.598;2022-07-06T04:20:06;12.20;99.90
51853;DHT22;37894;53.172;6.598;2022-07-06T04:22:31;12.40;99.90
51853;DHT22;37894;53.172;6.598;2022-07-06T04:27:23;12.30;99.90
51853;DHT22;37894;53.172;6.598;2022-07-06T04:32:15;12.70;99.90
51853;DHT22;37894;53.172;6.598;2022-07-06T04:34:40;12.80;99.90
51853;DHT22;37894;53.172;6.598;2022-07-06T04:37:06;12.70;99.90
51853;DHT22;37894;53.172;6.598;2022-07-06T04:39:31;13.20;99.90
51853;DHT22;37894;53.172;6.598;2022-07-06T04:41:57;12.50;99.90
51853;DHT22;37894;53.172;6.598;2022-07-06T04:44:23;12.70;99.90
51853;DHT22;37894;53.172;6.598;2022-07-06T04:46:48;13.50;99.90
51853;DHT22;37894;53.172;6.598;2022-07-06T04:49:14;12.90;99.90
51853;DHT22;37894;53.172;6.598;2022-07-06T04:51:40;13.20;99.90
51853;DHT22;37894;53.172;6.598;2022-07-06T04:54:05;12.80;99.90
51853;DHT22;37894;53.172;6.598;2022-07-06T04:58:57;12.90;99.90
51853;DHT22;37894;53.172;6.598;2022-07-06T05:01:23;13.10;99.90
51853;DHT22;37894;53.172;6.598;2022-07-06T05:03:48;13.10;99.90
51853;DHT22;37894;53.172;6.598;2022-07-06T05:06:14;13.50;99.90
51853;DHT22;37894;53.172;6.598;2022-07-06T05:08:40;13.20;99.90
51853;DHT22;37894;53.172;6.598;2022-07-06T05:11:06;13.50;99.90
51853;DHT22;37894;53.172;6.598;2022-07-06T05:13:31;13.30;99.90
51853;DHT22;37894;53.172;6.598;2022-07-06T05:15:57;13.30;99.90
51853;DHT22;37894;53.172;6.598;2022-07-06T05:18:22;13.20;99.90
51853;DHT22;37894;53.172;6.598;2022-07-06T05:20:48;13.60;99.90
51853;DHT22;37894;53.172;6.598;2022-07-06T05:23:14;13.60;99.90
51853;DHT22;37894;53.172;6.598;2022-07-06T05:25:39;13.60;99.90
51853;DHT22;37894;53.172;6.598;2022-07-06T05:28:05;13.50;99.90
51853;DHT22;37894;53.172;6.598;2022-07-06T05:30:31;14.20;99.90
51853;DHT22;37894;53.172;6.598;2022-07-06T05:32:56;13.50;99.90
51853;DHT22;37894;53.172;6.598;2022-07-06T05:35:22;14.70;99.90
51853;DHT22;37894;53.172;6.598;2022-07-06T05:37:47;13.30;99.90
51853;DHT22;37894;53.172;6.598;2022-07-06T05:40:13;14.00;99.90
51853;DHT22;37894;53.172;6.598;2022-07-06T05:42:39;13.20;99.90
51853;DHT22;37894;53.172;6.598;2022-07-06T05:45:05;14.00;99.90
51853;DHT22;37894;53.172;6.598;2022-07-06T05:47:32;14.60;99.90
51853;DHT22;37894;53.172;6.598;2022-07-06T05:50:16;14.30;99.90
51853;DHT22;37894;53.172;6.598;2022-07-06T05:52:44;14.40;99.90
51853;DHT22;37894;53.172;6.598;2022-07-06T05:55:12;14.90;99.90
51853;DHT22;37894;53.172;6.598;2022-07-06T05:57:38;14.90;99.90
51853;DHT22;37894;53.172;6.598;2022-07-06T06:00:07;14.30;99.90
51853;DHT22;37894;53.172;6.598;2022-07-06T06:02:40;14.30;99.90
51853;DHT22;37894;53.172;6.598;2022-07-06T06:05:10;14.20;99.90
51853;DHT22;37894;53.172;6.598;2022-07-06T06:07:37;14.30;99.90
51853;DHT22;37894;53.172;6.598;2022-07-06T06:10:08;14.90;99.90
51853;DHT22;37894;53.172;6.598;2022-07-06T06:12:34;14.50;99.90
51853;DHT22;37894;53.172;6.598;2022-07-06T06:15:00;14.20;99.90
51853;DHT22;37894;53.172;6.598;2022-07-06T06:17:26;13.90;99.90
51853;DHT22;37894;53.172;6.598;2022-07-06T06:19:51;14.90;99.90
51853;DHT22;37894;53.172;6.598;2022-07-06T06:22:17;14.30;99.90
51853;DHT22;37894;53.172;6.598;2022-07-06T06:24:43;14.90;99.90
51853;DHT22;37894;53.172;6.598;2022-07-06T06:27:08;14.20;99.90
51853;DHT22;37894;53.172;6.598;2022-07-06T06:29:34;14.20;99.90
51853;DHT22;37894;53.172;6.598;2022-07-06T06:32:00;14.20;99.90
51853;DHT22;37894;53.172;6.598;2022-07-06T06:34:25;14.20;99.90
51853;DHT22;37894;53.172;6.598;2022-07-06T06:36:51;15.20;99.90
51853;DHT22;37894;53.172;6.598;2022-07-06T06:39:16;14.60;99.90
51853;DHT22;37894;53.172;6.598;2022-07-06T06:41:42;14.80;99.90
51853;DHT22;37894;53.172;6.598;2022-07-06T06:44:08;14.50;99.90
51853;DHT22;37894;53.172;6.598;2022-07-06T06:46:34;14.00;99.90
51853;DHT22;37894;53.172;6.598;2022-07-06T06:48:59;14.10;99.90
51853;DHT22;37894;53.172;6.598;2022-07-06T06:51:25;14.40;99.90
51853;DHT22;37894;53.172;6.598;2022-07-06T06:53:51;14.50;99.90
51853;DHT22;37894;53.172;6.598;2022-07-06T06:56:16;14.40;99.90
51853;DHT22;37894;53.172;6.598;2022-07-06T06:58:42;14.80;99.90
51853;DHT22;37894;53.172;6.598;2022-07-06T07:01:08;15.10;99.90
51853;DHT22;37894;53.172;6.598;2022-07-06T07:03:34;14.60;99.90
51853;DHT22;37894;53.172;6.598;2022-07-06T07:06:00;14.60;99.90
51853;DHT22;37894;53.172;6.598;2022-07-06T07:08:25;14.70;99.90
51853;DHT22;37894;53.172;6.598;2022-07-06T07:10:51;14.80;99.90
51853;DHT22;37894;53.172;6.598;2022-07-06T07:13:17;14.40;99.90
51853;DHT22;37894;53.172;6.598;2022-07-06T07:15:43;15.70;99.90
51853;DHT22;37894;53.172;6.598;2022-07-06T07:18:08;15.30;99.90
51853;DHT22;37894;53.172;6.598;2022-07-06T07:20:34;15.10;99.90
51853;DHT22;37894;53.172;6.598;2022-07-06T07:23:00;15.70;99.90
51853;DHT22;37894;53.172;6.598;2022-07-06T07:25:27;15.20;99.90
51853;DHT22;37894;53.172;6.598;2022-07-06T07:27:53;14.10;99.90
51853;DHT22;37894;53.172;6.598;2022-07-06T07:30:19;15.80;99.90
51853;DHT22;37894;53.172;6.598;2022-07-06T07:32:46;15.70;99.90
51853;DHT22;37894;53.172;6.598;2022-07-06T07:35:11;15.40;99.90
51853;DHT22;37894;53.172;6.598;2022-07-06T07:37:37;15.50;99.90
51853;DHT22;37894;53.172;6.598;2022-07-06T07:40:04;15.70;99.90
51853;DHT22;37894;53.172;6.598;2022-07-06T07:42:30;14.60;99.90
51853;DHT22;37894;53.172;6.598;2022-07-06T07:44:56;15.20;99.90
51853;DHT22;37894;53.172;6.598;2022-07-06T07:47:22;15.20;99.90
51853;DHT22;37894;53.172;6.598;2022-07-06T07:49:47;15.70;99.90
51853;DHT22;37894;53.172;6.598;2022-07-06T07:52:13;16.20;99.90
51853;DHT22;37894;53.172;6.598;2022-07-06T07:54:39;16.90;99.90
51853;DHT22;37894;53.172;6.598;2022-07-06T07:57:05;17.00;99.90
51853;DHT22;37894;53.172;6.598;2022-07-06T07:59:30;16.90;99.90
51853;DHT22;37894;53.172;6.598;2022-07-06T08:01:56;17.10;99.90
51853;DHT22;37894;53.172;6.598;2022-07-06T08:04:22;17.70;99.90
51853;DHT22;37894;53.172;6.598;2022-07-06T08:06:48;17.80;99.90
51853;DHT22;37894;53.172;6.598;2022-07-06T08:09:14;17.60;99.90
51853;DHT22;37894;53.172;6.598;2022-07-06T08:11:41;18.00;99.90
51853;DHT22;37894;53.172;6.598;2022-07-06T08:14:06;17.70;99.90
51853;DHT22;37894;53.172;6.598;2022-07-06T08:16:32;18.10;99.90
51853;DHT22;37894;53.172;6.598;2022-07-06T08:18:58;17.70;99.90
51853;DHT22;37894;53.172;6.598;2022-07-06T08:21:24;17.70;99.90
51853;DHT22;37894;53.172;6.598;2022-07-06T08:23:49;17.90;99.90
51853;DHT22;37894;53.172;6.598;2022-07-06T08:26:15;17.90;99.90
51853;DHT22;37894;53.172;6.598;2022-07-06T08:28:41;17.90;99.90
51853;DHT22;37894;53.172;6.598;2022-07-06T08:31:07;17.90;99.90
51853;DHT22;37894;53.172;6.598;2022-07-06T08:33:32;17.90;99.90
51853;DHT22;37894;53.172;6.598;2022-07-06T08:35:58;18.00;99.90
51853;DHT22;37894;53.172;6.598;2022-07-06T08:38:24;18.90;99.90
51853;DHT22;37894;53.172;6.598;2022-07-06T08:40:50;18.20;99.90
51853;DHT22;37894;53.172;6.598;2022-07-06T08:43:17;18.60;99.90
51853;DHT22;37894;53.172;6.598;2022-07-06T08:45:43;18.40;99.90
51853;DHT22;37894;53.172;6.598;2022-07-06T08:48:10;18.50;99.90
51853;DHT22;37894;53.172;6.598;2022-07-06T08:50:36;18.90;99.90
51853;DHT22;37894;53.172;6.598;2022-07-06T08:53:03;18.70;99.90
51853;DHT22;37894;53.172;6.598;2022-07-06T08:55:30;18.90;99.90
51853;DHT22;37894;53.172;6.598;2022-07-06T08:57:57;19.00;99.90
51853;DHT22;37894;53.172;6.598;2022-07-06T09:00:24;19.00;99.90
51853;DHT22;37894;53.172;6.598;2022-07-06T09:02:53;19.10;99.90
51853;DHT22;37894;53.172;6.598;2022-07-06T09:05:23;19.30;99.90
51853;DHT22;37894;53.172;6.598;2022-07-06T09:07:50;19.50;99.90
51853;DHT22;37894;53.172;6.598;2022-07-06T09:10:21;21.00;99.90
51853;DHT22;37894;53.172;6.598;2022-07-06T09:12:50;20.00;99.90
51853;DHT22;37894;53.172;6.598;2022-07-06T09:15:16;19.60;99.90
51853;DHT22;37894;53.172;6.598;2022-07-06T09:17:43;19.40;99.90
51853;DHT22;37894;53.172;6.598;2022-07-06T09:20:10;19.10;99.90
51853;DHT22;37894;53.172;6.598;2022-07-06T09:22:37;18.60;99.90
51853;DHT22;37894;53.172;6.598;2022-07-06T09:25:10;18.80;99.90
51853;DHT22;37894;53.172;6.598;2022-07-06T09:27:41;18.50;99.90
51853;DHT22;37894;53.172;6.598;2022-07-06T09:30:10;19.30;99.90
51853;DHT22;37894;53.172;6.598;2022-07-06T09:32:44;18.10;99.90
51853;DHT22;37894;53.172;6.598;2022-07-06T09:35:26;18.10;99.90
51853;DHT22;37894;53.172;6.598;2022-07-06T09:38:10;18.30;99.90
51853;DHT22;37894;53.172;6.598;2022-07-06T09:40:41;18.70;99.90
51853;DHT22;37894;53.172;6.598;2022-07-06T09:45:46;19.60;99.90
51853;DHT22;37894;53.172;6.598;2022-07-06T09:48:15;20.10;99.90
51853;DHT22;37894;53.172;6.598;2022-07-06T09:50:45;20.40;99.90
51853;DHT22;37894;53.172;6.598;2022-07-06T09:53:12;20.60;99.90
51853;DHT22;37894;53.172;6.598;2022-07-06T09:55:38;20.70;99.90
51853;DHT22;37894;53.172;6.598;2022-07-06T09:58:08;20.60;99.90
51853;DHT22;37894;53.172;6.598;2022-07-06T10:00:34;20.50;99.90
51853;DHT22;37894;53.172;6.598;2022-07-06T10:03:00;20.40;99.90
51853;DHT22;37894;53.172;6.598;2022-07-06T10:05:26;20.10;99.90
51853;DHT22;37894;53.172;6.598;2022-07-06T10:07:57;19.80;99.90
51853;DHT22;37894;53.172;6.598;2022-07-06T10:10:29;19.60;99.90
51853;DHT22;37894;53.172;6.598;2022-07-06T10:12:56;19.50;99.90
51853;DHT22;37894;53.172;6.598;2022-07-06T10:15:26;19.50;99.90
51853;DHT22;37894;53.172;6.598;2022-07-06T10:17:53;19.50;99.90
51853;DHT22;37894;53.172;6.598;2022-07-06T10:20:20;19.60;99.90
51853;DHT22;37894;53.172;6.598;2022-07-06T10:22:49;20.90;99.90
51853;DHT22;37894;53.172;6.598;2022-07-06T10:25:17;20.00;99.90
51853;DHT22;37894;53.172;6.598;2022-07-06T10:27:43;19.90;99.90
51853;DHT22;37894;53.172;6.598;2022-07-06T10:30:10;19.20;99.90
51853;DHT22;37894;53.172;6.598;2022-07-06T10:32:38;20.30;99.90
51853;DHT22;37894;53.172;6.598;2022-07-06T10:35:05;20.50;99.90
51853;DHT22;37894;53.172;6.598;2022-07-06T10:37:31;20.60;99.90
51853;DHT22;37894;53.172;6.598;2022-07-06T10:39:59;20.80;99.90
51853;DHT22;37894;53.172;6.598;2022-07-06T10:42:46;21.10;99.90
51853;DHT22;37894;53.172;6.598;2022-07-06T10:45:19;21.10;99.90
51853;DHT22;37894;53.172;6.598;2022-07-06T10:50:41;21.40;99.90
51853;DHT22;37894;53.172;6.598;2022-07-06T10:53:13;21.50;99.90
51853;DHT22;37894;53.172;6.598;2022-07-06T10:55:45;21.70;99.90
51853;DHT22;37894;53.172;6.598;2022-07-06T11:00:59;21.80;99.90
51853;DHT22;37894;53.172;6.598;2022-07-06T11:03:33;21.70;99.90
51853;DHT22;37894;53.172;6.598;2022-07-06T11:08:59;21.40;99.90
51853;DHT22;37894;53.172;6.598;2022-07-06T11:16:24;20.60;97.20
51853;DHT22;37894;53.172;6.598;2022-07-06T11:19:12;20.50;99.50
51853;DHT22;37894;53.172;6.598;2022-07-06T11:24:08;21.00;99.90
51853;DHT22;37894;53.172;6.598;2022-07-06T11:26:35;21.30;99.90
51853;DHT22;37894;53.172;6.598;2022-07-06T11:29:04;21.50;97.40
51853;DHT22;37894;53.172;6.598;2022-07-06T11:31:32;21.60;98.10
51853;DHT22;37894;53.172;6.598;2022-07-06T11:33:58;21.50;98.40
51853;DHT22;37894;53.172;6.598;2022-07-06T11:36:23;21.40;98.00
51853;DHT22;37894;53.172;6.598;2022-07-06T11:38:50;21.10;97.10
51853;DHT22;37894;53.172;6.598;2022-07-06T11:41:17;21.10;98.20
51853;DHT22;37894;53.172;6.598;2022-07-06T11:43:47;21.30;99.00
51853;DHT22;37894;53.172;6.598;2022-07-06T11:46:26;21.50;99.00
51853;DHT22;37894;53.172;6.598;2022-07-06T11:49:00;21.80;96.40
51853;DHT22;37894;53.172;6.598;2022-07-06T11:51:28;22.10;94.50
51853;DHT22;37894;53.172;6.598;2022-07-06T11:53:56;22.20;95.90
51853;DHT22;37894;53.172;6.598;2022-07-06T11:56:24;22.20;96.30
51853;DHT22;37894;53.172;6.598;2022-07-06T11:58:59;22.50;97.00
51853;DHT22;37894;53.172;6.598;2022-07-06T12:01:27;22.70;95.10
51853;DHT22;37894;53.172;6.598;2022-07-06T12:03:57;22.70;95.00
51853;DHT22;37894;53.172;6.598;2022-07-06T12:06:24;22.60;90.20
51853;DHT22;37894;53.172;6.598;2022-07-06T12:08:52;22.30;90.10
51853;DHT22;37894;53.172;6.598;2022-07-06T12:11:28;22.30;90.10
51853;DHT22;37894;53.172;6.598;2022-07-06T12:14:16;22.40;92.00
51853;DHT22;37894;53.172;6.598;2022-07-06T12:16:42;22.50;92.00
51853;DHT22;37894;53.172;6.598;2022-07-06T12:19:07;22.40;90.70
51853;DHT22;37894;53.172;6.598;2022-07-06T12:21:34;22.40;90.90
51853;DHT22;37894;53.172;6.598;2022-07-06T12:24:00;22.30;91.40
51853;DHT22;37894;53.172;6.598;2022-07-06T12:26:27;22.30;90.50
51853;DHT22;37894;53.172;6.598;2022-07-06T12:31:34;22.20;88.50
51853;DHT22;37894;53.172;6.598;2022-07-06T12:33:59;22.20;89.90
51853;DHT22;37894;53.172;6.598;2022-07-06T12:36:25;22.00;91.30
51853;DHT22;37894;53.172;6.598;2022-07-06T12:38:51;21.90;90.50
51853;DHT22;37894;53.172;6.598;2022-07-06T12:41:32;21.70;90.40
51853;DHT22;37894;53.172;6.598;2022-07-06T12:44:08;21.70;90.70
51853;DHT22;37894;53.172;6.598;2022-07-06T12:46:37;21.80;90.90
51853;DHT22;37894;53.172;6.598;2022-07-06T12:49:22;22.00;91.70
51853;DHT22;37894;53.172;6.598;2022-07-06T12:54:16;22.00;91.10
51853;DHT22;37894;53.172;6.598;2022-07-06T12:56:58;21.90;91.30
51853;DHT22;37894;53.172;6.598;2022-07-06T12:59:23;21.80;92.10
51853;DHT22;37894;53.172;6.598;2022-07-06T13:01:49;21.60;91.40
51853;DHT22;37894;53.172;6.598;2022-07-06T13:04:22;21.50;91.60
51853;DHT22;37894;53.172;6.598;2022-07-06T13:06:48;21.30;92.20
51853;DHT22;37894;53.172;6.598;2022-07-06T13:09:14;21.20;92.40
51853;DHT22;37894;53.172;6.598;2022-07-06T13:11:41;21.00;92.40
51853;DHT22;37894;53.172;6.598;2022-07-06T13:14:07;20.90;92.70
51853;DHT22;37894;53.172;6.598;2022-07-06T13:16:34;20.80;92.70
51853;DHT22;37894;53.172;6.598;2022-07-06T13:19:01;20.80;92.70
51853;DHT22;37894;53.172;6.598;2022-07-06T13:21:27;20.70;92.50
51853;DHT22;37894;53.172;6.598;2022-07-06T13:23:53;20.90;93.60
51853;DHT22;37894;53.172;6.598;2022-07-06T13:26:19;20.90;93.10
51853;DHT22;37894;53.172;6.598;2022-07-06T13:28:44;21.10;93.40
51853;DHT22;37894;53.172;6.598;2022-07-06T13:31:11;21.30;92.30
51853;DHT22;37894;53.172;6.598;2022-07-06T13:33:37;21.10;92.40
51853;DHT22;37894;53.172;6.598;2022-07-06T13:36:03;21.00;92.50
51853;DHT22;37894;53.172;6.598;2022-07-06T13:38:29;20.90;92.10
51853;DHT22;37894;53.172;6.598;2022-07-06T13:40:55;20.80;92.80
51853;DHT22;37894;53.172;6.598;2022-07-06T13:43:20;20.70;93.50
51853;DHT22;37894;53.172;6.598;2022-07-06T13:45:46;20.60;94.00
51853;DHT22;37894;53.172;6.598;2022-07-06T13:48:12;20.40;93.50
51853;DHT22;37894;53.172;6.598;2022-07-06T13:50:38;20.40;94.10
51853;DHT22;37894;53.172;6.598;2022-07-06T13:53:04;20.30;94.90
51853;DHT22;37894;53.172;6.598;2022-07-06T13:55:31;20.20;95.40
51853;DHT22;37894;53.172;6.598;2022-07-06T13:57:56;20.00;94.40
51853;DHT22;37894;53.172;6.598;2022-07-06T14:00:22;19.90;94.60
51853;DHT22;37894;53.172;6.598;2022-07-06T14:02:48;19.80;94.90
51853;DHT22;37894;53.172;6.598;2022-07-06T14:05:14;19.80;94.70
51853;DHT22;37894;53.172;6.598;2022-07-06T14:07:39;19.80;95.30
51853;DHT22;37894;53.172;6.598;2022-07-06T14:10:06;19.80;95.10
51853;DHT22;37894;53.172;6.598;2022-07-06T14:12:32;19.40;95.80
51853;DHT22;37894;53.172;6.598;2022-07-06T14:14:58;19.70;96.30
51853;DHT22;37894;53.172;6.598;2022-07-06T14:17:25;19.80;96.40
51853;DHT22;37894;53.172;6.598;2022-07-06T14:19:51;19.80;95.80
51853;DHT22;37894;53.172;6.598;2022-07-06T14:22:17;19.70;96.00
51853;DHT22;37894;53.172;6.598;2022-07-06T14:24:42;19.60;96.40
51853;DHT22;37894;53.172;6.598;2022-07-06T14:27:08;19.50;97.00
51853;DHT22;37894;53.172;6.598;2022-07-06T14:29:34;19.50;96.70
51853;DHT22;37894;53.172;6.598;2022-07-06T14:31:59;19.40;96.80
51853;DHT22;37894;53.172;6.598;2022-07-06T14:34:25;19.30;96.70
51853;DHT22;37894;53.172;6.598;2022-07-06T14:36:51;18.80;98.00
51853;DHT22;37894;53.172;6.598;2022-07-06T14:39:17;19.20;98.00
51853;DHT22;37894;53.172;6.598;2022-07-06T14:41:43;19.20;98.30
51853;DHT22;37894;53.172;6.598;2022-07-06T14:44:08;19.10;99.90
51853;DHT22;37894;53.172;6.598;2022-07-06T14:46:34;19.10;99.90
51853;DHT22;37894;53.172;6.598;2022-07-06T14:49:00;19.10;99.90
51853;DHT22;37894;53.172;6.598;2022-07-06T14:51:26;20.10;99.90
51853;DHT22;37894;53.172;6.598;2022-07-06T14:53:52;19.10;99.90
51853;DHT22;37894;53.172;6.598;2022-07-06T14:56:19;19.20;99.90
51853;DHT22;37894;53.172;6.598;2022-07-06T14:58:44;19.10;99.90
51853;DHT22;37894;53.172;6.598;2022-07-06T15:01:10;19.00;99.90
51853;DHT22;37894;53.172;6.598;2022-07-06T15:03:36;19.00;99.90
51853;DHT22;37894;53.172;6.598;2022-07-06T15:06:02;19.20;99.90
51853;DHT22;37894;53.172;6.598;2022-07-06T15:08:28;18.90;99.90
51853;DHT22;37894;53.172;6.598;2022-07-06T15:10:54;18.80;99.90
51853;DHT22;37894;53.172;6.598;2022-07-06T15:13:20;18.70;99.90
51853;DHT22;37894;53.172;6.598;2022-07-06T15:15:45;18.70;99.90
51853;DHT22;37894;53.172;6.598;2022-07-06T15:18:11;18.50;99.90
51853;DHT22;37894;53.172;6.598;2022-07-06T15:20:37;18.70;99.90
51853;DHT22;37894;53.172;6.598;2022-07-06T15:23:02;18.30;99.90
51853;DHT22;37894;53.172;6.598;2022-07-06T15:25:28;18.10;99.90
51853;DHT22;37894;53.172;6.598;2022-07-06T15:27:54;18.00;99.90
51853;DHT22;37894;53.172;6.598;2022-07-06T15:30:20;17.90;99.90
51853;DHT22;37894;53.172;6.598;2022-07-06T15:32:45;17.80;99.90
51853;DHT22;37894;53.172;6.598;2022-07-06T15:35:11;17.70;99.90
51853;DHT22;37894;53.172;6.598;2022-07-06T15:37:37;17.60;99.90
51853;DHT22;37894;53.172;6.598;2022-07-06T15:40:03;17.60;99.90
51853;DHT22;37894;53.172;6.598;2022-07-06T15:42:50;17.60;99.90
51853;DHT22;37894;53.172;6.598;2022-07-06T15:45:17;17.80;99.90
51853;DHT22;37894;53.172;6.598;2022-07-06T15:47:44;17.30;99.90
51853;DHT22;37894;53.172;6.598;2022-07-06T15:50:10;17.60;99.90
51853;DHT22;37894;53.172;6.598;2022-07-06T15:52:35;17.70;99.90
51853;DHT22;37894;53.172;6.598;2022-07-06T15:55:01;17.70;99.90
51853;DHT22;37894;53.172;6.598;2022-07-06T15:57:27;18.80;99.90
51853;DHT22;37894;53.172;6.598;2022-07-06T15:59:52;17.60;99.90
51853;DHT22;37894;53.172;6.598;2022-07-06T16:02:24;17.70;99.90
51853;DHT22;37894;53.172;6.598;2022-07-06T16:04:50;17.50;99.90
51853;DHT22;37894;53.172;6.598;2022-07-06T16:07:15;17.30;99.90
51853;DHT22;37894;53.172;6.598;2022-07-06T16:09:41;17.00;99.90
51853;DHT22;37894;53.172;6.598;2022-07-06T16:12:07;16.60;99.90
51853;DHT22;37894;53.172;6.598;2022-07-06T16:14:33;16.90;99.90
51853;DHT22;37894;53.172;6.598;2022-07-06T16:16:59;16.60;99.90
51853;DHT22;37894;53.172;6.598;2022-07-06T16:19:25;16.60;99.90
51853;DHT22;37894;53.172;6.598;2022-07-06T16:21:50;17.30;99.90
51853;DHT22;37894;53.172;6.598;2022-07-06T16:24:16;16.10;99.90
51853;DHT22;37894;53.172;6.598;2022-07-06T16:26:42;16.40;99.90
51853;DHT22;37894;53.172;6.598;2022-07-06T16:29:08;16.20;99.90
51853;DHT22;37894;53.172;6.598;2022-07-06T16:31:33;16.20;99.90